createdAt,value
2023-03-19T00:03:49.321Z,100695.69
2023-03-19T00:09:11.849Z,100692.38
2023-03-19T00:14:33.709Z,100695.81
2023-03-19T00:19:55.589Z,100669.44
2023-03-19T00:25:17.511Z,100689.94
2023-03-19T00:30:39.494Z,100684.97
2023-03-19T00:36:01.408Z,100680.66
2023-03-19T00:41:23.549Z,100677.22
2023-03-19T00:46:46.083Z,100677.25
2023-03-19T00:52:08.021Z,100672.19
2023-03-19T00:57:29.923Z,100675.69
2023-03-19T01:02:51.805Z,100674.03
2023-03-19T01:08:13.803Z,100677.50
2023-03-19T01:13:35.923Z,100664.75
2023-03-19T01:18:57.859Z,100671.63
2023-03-19T01:24:19.736Z,100686.94
2023-03-19T01:29:41.585Z,100686.97
2023-03-19T01:35:03.594Z,100692.16
2023-03-19T01:40:25.445Z,100688.72
2023-03-19T01:45:51.384Z,100681.94
2023-03-19T01:51:17.776Z,100695.56
2023-03-19T01:56:41.928Z,100688.81
2023-03-19T02:02:13.937Z,100687.94
2023-03-19T02:07:38.850Z,100670.97
2023-03-19T02:13:00.744Z,100694.88
2023-03-19T02:18:25.009Z,100683.75
2023-03-19T02:23:58.372Z,100682.09
2023-03-19T02:29:20.377Z,100665.97
2023-03-19T02:34:43.743Z,100671.09
2023-03-19T02:40:19.668Z,100681.31
2023-03-19T02:45:41.787Z,100687.31
2023-03-19T02:51:05.033Z,100699.25
2023-03-19T02:56:26.872Z,100700.13
2023-03-19T03:01:48.862Z,100700.13
2023-03-19T03:07:11.040Z,100691.63
2023-03-19T03:12:32.902Z,100698.44
2023-03-19T03:17:54.843Z,100698.44
2023-03-19T03:23:16.814Z,100684.88
2023-03-19T03:28:38.647Z,100672.94
2023-03-19T03:34:01.259Z,100684.84
2023-03-19T03:39:23.153Z,100691.66
2023-03-19T03:44:45.001Z,100684.88
2023-03-19T03:50:07.284Z,100674.63
2023-03-19T03:55:30.391Z,100680.63
2023-03-19T04:00:52.245Z,100688.28
2023-03-19T04:06:17.193Z,100667.00
2023-03-19T04:11:41.055Z,100680.59
2023-03-19T04:17:03.103Z,100677.22
2023-03-19T04:22:25.051Z,100671.31
2023-03-19T04:27:46.924Z,100654.25
2023-03-19T04:33:09.594Z,100676.41
2023-03-19T04:38:31.433Z,100671.28
2023-03-19T04:43:53.293Z,100661.91
2023-03-19T04:49:15.200Z,100679.81
2023-03-19T04:54:37.138Z,100680.66
2023-03-19T04:59:59.015Z,100678.97
2023-03-19T05:05:20.862Z,100677.22
2023-03-19T05:10:42.704Z,100677.94
2023-03-19T05:16:04.919Z,100688.13
2023-03-19T05:21:26.897Z,100683.38
2023-03-19T05:26:48.818Z,100687.94
2023-03-19T05:32:10.757Z,100668.47
2023-03-19T05:37:32.715Z,100680.00
2023-03-19T05:42:54.631Z,100667.59
2023-03-19T05:48:16.539Z,100670.41
2023-03-19T05:53:38.382Z,100671.38
2023-03-19T05:59:00.245Z,100661.38
2023-03-19T06:04:22.155Z,100664.66
2023-03-19T06:09:44.085Z,100680.16
2023-03-19T06:15:06.481Z,100671.56
2023-03-19T06:20:28.345Z,100680.41
2023-03-19T06:25:50.226Z,100675.81
2023-03-19T06:31:12.233Z,100680.25
2023-03-19T06:36:34.212Z,100676.13
2023-03-19T06:41:56.172Z,100675.81
2023-03-19T06:47:18.039Z,100675.44
2023-03-19T06:52:40.936Z,100662.66
2023-03-19T06:58:03.286Z,100681.47
2023-03-19T07:03:25.139Z,100677.50
2023-03-19T07:08:47.147Z,100679.44
2023-03-19T07:14:09.604Z,100676.28
2023-03-19T07:19:31.421Z,100681.59
2023-03-19T07:24:53.327Z,100684.94
2023-03-19T07:30:15.718Z,100679.41
2023-03-19T07:35:37.664Z,100684.22
2023-03-19T07:41:02.680Z,100685.44
2023-03-19T07:46:24.887Z,100690.97
2023-03-19T07:51:46.748Z,100683.63
2023-03-19T07:57:08.795Z,100675.31
2023-03-19T08:02:30.737Z,100676.41
2023-03-19T08:07:52.688Z,100671.81
2023-03-19T08:13:14.648Z,100677.91
2023-03-19T08:18:36.577Z,100663.38
2023-03-19T08:23:58.758Z,100675.75
2023-03-19T08:29:20.701Z,100667.41
2023-03-19T08:34:42.643Z,100676.03
2023-03-19T08:40:04.995Z,100661.91
2023-03-19T08:45:26.851Z,100662.06
2023-03-19T08:51:00.656Z,100663.69
2023-03-19T08:56:22.565Z,100665.28
2023-03-19T09:01:44.500Z,100672.16
2023-03-19T09:07:06.460Z,100657.84
2023-03-19T09:12:28.405Z,100662.31
2023-03-19T09:17:50.385Z,100664.44
2023-03-19T09:23:12.245Z,100664.78
2023-03-19T09:28:34.951Z,100671.63
2023-03-19T09:33:56.975Z,100660.75
2023-03-19T09:39:18.872Z,100654.28
2023-03-19T09:44:43.621Z,100638.13
2023-03-19T09:50:15.943Z,100633.16
2023-03-19T09:55:49.825Z,100639.78
2023-03-19T10:01:40.707Z,100636.91
2023-03-19T10:07:14.534Z,100632.28
2023-03-19T10:12:52.610Z,100629.69
2023-03-19T10:18:19.894Z,100635.72
2023-03-19T10:23:41.686Z,100641.00
2023-03-19T10:29:11.280Z,100630.81
2023-03-19T10:34:35.046Z,100639.47
2023-03-19T10:39:59.055Z,100641.78
2023-03-19T10:45:30.820Z,100628.81
2023-03-19T10:51:05.532Z,100635.09
2023-03-19T10:56:29.830Z,100627.75
2023-03-19T11:02:02.984Z,100622.72
2023-03-19T11:07:27.109Z,100606.72
2023-03-19T11:12:55.333Z,100600.63
2023-03-19T11:18:25.072Z,100613.28
2023-03-19T11:23:52.404Z,100604.38
2023-03-19T11:29:14.281Z,100595.78
2023-03-19T11:34:59.225Z,100570.25
2023-03-19T11:40:41.690Z,100585.97
2023-03-19T11:46:25.308Z,100582.63
2023-03-19T11:52:04.179Z,100579.25
2023-03-19T11:58:03.189Z,100574.38
2023-03-19T12:03:52.425Z,100571.38
2023-03-19T12:09:34.255Z,100566.78
2023-03-19T12:15:18.944Z,100565.28
2023-03-19T12:20:56.706Z,100567.91
2023-03-19T12:26:40.351Z,100559.16
2023-03-19T12:32:20.844Z,100557.97
2023-03-19T12:37:54.404Z,100545.91
2023-03-19T12:43:21.724Z,100547.50
2023-03-19T12:49:21.029Z,100540.09
2023-03-19T12:54:48.802Z,100527.34
2023-03-19T13:00:13.791Z,100530.81
2023-03-19T13:05:47.681Z,100516.66
2023-03-19T13:11:15.531Z,100523.06
2023-03-19T13:16:57.638Z,100527.03
2023-03-19T13:22:30.611Z,100509.91
2023-03-19T13:27:53.990Z,100502.16
2023-03-19T13:33:22.272Z,100503.22
2023-03-19T13:38:48.891Z,100509.97
2023-03-19T13:44:32.661Z,100509.16
2023-03-19T13:50:06.893Z,100504.34
2023-03-19T13:55:32.579Z,100494.25
2023-03-19T14:00:59.019Z,100496.69
2023-03-19T14:06:31.702Z,100499.16
2023-03-19T14:11:53.601Z,100502.59
2023-03-19T14:17:19.855Z,100504.88
2023-03-19T14:22:57.218Z,100501.09
2023-03-19T14:28:24.132Z,100483.81
2023-03-19T14:33:53.944Z,100502.50
2023-03-19T14:39:23.373Z,100490.31
2023-03-19T14:45:17.757Z,100484.53
2023-03-19T14:50:53.995Z,100497.53
2023-03-19T14:56:21.199Z,100488.16
2023-03-19T15:01:50.464Z,100496.59
2023-03-19T15:07:22.826Z,100496.75
2023-03-19T15:13:11.383Z,100473.97
2023-03-19T15:18:35.332Z,100475.75
2023-03-19T15:23:57.784Z,100475.91
2023-03-19T15:29:31.160Z,100473.41
2023-03-19T15:34:56.689Z,100464.56
2023-03-19T15:40:22.640Z,100464.78
2023-03-19T15:45:52.437Z,100464.31
2023-03-19T15:51:15.851Z,100462.19
2023-03-19T15:56:38.404Z,100485.91
2023-03-19T16:02:02.152Z,100490.88
2023-03-19T16:07:41.361Z,100488.38
2023-03-19T16:13:20.120Z,100499.41
2023-03-19T16:18:53.503Z,100495.63
2023-03-19T16:24:25.015Z,100504.03
2023-03-19T16:29:57.380Z,100507.31
2023-03-19T16:35:19.952Z,100506.50
2023-03-19T16:40:43.056Z,100518.00
2023-03-19T16:46:06.992Z,100503.03
2023-03-19T16:51:28.864Z,100529.06
2023-03-19T16:56:50.714Z,100511.63
2023-03-19T17:02:17.777Z,100529.31
2023-03-19T17:07:39.717Z,100536.28
2023-03-19T17:13:01.865Z,100530.06
2023-03-19T17:18:26.280Z,100540.31
2023-03-19T17:23:48.282Z,100540.56
2023-03-19T17:29:10.353Z,100538.63
2023-03-19T17:34:32.234Z,100547.59
2023-03-19T17:39:54.048Z,100552.00
2023-03-19T17:45:17.363Z,100529.91
2023-03-19T17:50:39.227Z,100537.59
2023-03-19T17:56:01.082Z,100522.50
2023-03-19T18:01:27.208Z,100525.75
2023-03-19T18:06:53.046Z,100533.75
2023-03-19T18:12:14.883Z,100534.91
2023-03-19T18:17:36.957Z,100522.91
2023-03-19T18:22:58.850Z,100518.91
2023-03-19T18:28:20.705Z,100505.72
2023-03-19T18:33:49.136Z,100520.19
2023-03-19T18:39:13.649Z,100523.22
2023-03-19T18:44:35.535Z,100529.56
2023-03-19T18:49:57.467Z,100528.81
2023-03-19T18:55:20.736Z,100517.03
2023-03-19T19:00:42.922Z,100528.13
2023-03-19T19:06:05.006Z,100524.75
2023-03-19T19:11:27.371Z,100522.28
2023-03-19T19:16:50.181Z,100511.66
2023-03-19T19:22:16.897Z,100527.97
2023-03-19T19:27:38.645Z,100531.91
2023-03-19T19:33:00.663Z,100536.25
2023-03-19T19:38:22.727Z,100517.69
2023-03-19T19:43:46.051Z,100511.97
2023-03-19T19:49:14.426Z,100533.28
2023-03-19T19:54:36.288Z,100531.94
2023-03-19T19:59:58.131Z,100529.44
2023-03-19T20:05:23.270Z,100520.13
2023-03-19T20:10:46.156Z,100524.03
2023-03-19T20:16:11.008Z,100526.63
2023-03-19T20:21:33.345Z,100522.38
2023-03-19T20:26:55.221Z,100521.03
2023-03-19T20:32:31.094Z,100535.03
2023-03-19T20:37:54.876Z,100529.47
2023-03-19T20:43:28.390Z,100532.59
2023-03-19T20:48:50.577Z,100528.41
2023-03-19T20:54:12.445Z,100529.53
2023-03-19T20:59:34.339Z,100504.22
2023-03-19T21:04:56.185Z,100519.78
2023-03-19T21:10:24.287Z,100512.25
2023-03-19T21:15:46.625Z,100520.13
2023-03-19T21:21:10.556Z,100528.06
2023-03-19T21:26:37.072Z,100532.66
2023-03-19T21:31:58.935Z,100526.09
2023-03-19T21:37:20.902Z,100527.41
2023-03-19T21:42:43.074Z,100531.72
2023-03-19T21:48:17.195Z,100524.94
2023-03-19T21:53:39.063Z,100506.50
2023-03-19T21:59:04.146Z,100521.06
2023-03-19T22:04:26.006Z,100513.56
2023-03-19T22:09:47.929Z,100501.78
2023-03-19T22:15:30.089Z,100509.44
2023-03-19T22:20:52.720Z,100518.34
2023-03-19T22:26:34.801Z,100517.50
2023-03-19T22:31:56.964Z,100515.78
2023-03-19T22:37:30.178Z,100503.84
2023-03-19T22:42:52.021Z,100494.56
2023-03-19T22:48:15.267Z,100496.44
2023-03-19T22:53:37.663Z,100505.28
2023-03-19T22:58:59.449Z,100497.63
2023-03-19T23:04:24.522Z,100498.63
2023-03-19T23:09:46.401Z,100501.28
2023-03-19T23:15:08.857Z,100508.31
2023-03-19T23:20:32.059Z,100483.91
2023-03-19T23:25:54.468Z,100503.59
2023-03-19T23:31:16.421Z,100496.88
2023-03-19T23:36:38.297Z,100491.00
2023-03-19T23:42:00.441Z,100480.09
2023-03-19T23:47:22.340Z,100488.75
2023-03-19T23:52:44.229Z,100459.19
2023-03-19T23:58:06.073Z,100483.91
